Terminal Aerodrome Forecast
Issued by NWS Cleveland, OH

Home | Current Version | Previous Version | Graphics & Text | Print | Product List | Glossary On
Versions: 1 2 3 4 5 6 7 8 9 10 11 12 13 14 15 16 17 18 19 20 21 22 23 24 25 26 27 28 29
000
FTUS41 KCLE 210200 AAA
TAFYNG
TAF AMD
KYNG 210209Z 2102/2124 21007KT 6SM -SHRA BKN015 OVC025
      TEMPO 2103/2106 3SM -SHRA BR BKN008 OVC012
     FM210600 28006KT 6SM BR VCSH OVC015
     FM211000 30008KT 5SM -DZ BKN008 OVC015
     FM211600 32012KT 4SM BR SCT008 OVC015=

USA.gov is the U.S. government's official web portal to all federal, state and local government web resources and services.